Tiempo atmosférico en la estación meteorológica de Bicorp, València/Valencia (299 m.)



Fecha
DESCASC
Temp. máxima en grados centígrados (hora)
DESCASC
Temp. mínima en grados centígrados (hora)
DESCASC
Temp. media en grados centígrados
DESCASC
Racha de viento máxima en m/sg (hora)
DESCASC
Velocidad máxima media en intervalos de 10 minutos(hora)
DESCASC
Precipitaciones diarias en mm
DESCASC
Precipitaciones de 00:00 a 06:00 en mm
DESCASC
Precipitaciones de 06:00 a 12:00 en mm
DESCASC
Precipitaciones de 12:00 a 18:00 en mm
DESCASC
Precipitaciones de 18:00 a 24:00 en mm
DESCASC
23-05-2020 31.5 (15:50) 14.7 (06:40) 23.1 5.28 (14:50) 3.33 (17:10) 0 0 0 0 0
22-05-2020 31.8 (15:20) 15.4 (06:10) 23.6 6.11 (16:40) 3.61 (16:40) 0 0 0 0 0
21-05-2020 31.3 (15:40) 14 (00:00) 22.6 6.11 (15:20) 3.61 (16:40) 0 0 0 0 0
20-05-2020 31.7 (15:40) 13.7 (00:00) 22.7 7.5 (16:20) 4.44 (16:20) 0 0 0 0 0
19-05-2020 31.2 (17:20) 11.7 (06:10) 21.5 6.67 (13:30) 3.61 (15:50) 0 0 0 0 0
18-05-2020 28.8 (17:20) 11.7 (00:00) 20.2 6.94 (18:10) 4.17 (19:00) 0 0 0 0 0
17-05-2020 22.7 (19:00) 13 (00:00) 17.9 6.39 (14:20) 4.17 (14:20) 0.4 0 0 0.4 0
16-05-2020 20 (17:40) 12.8 (00:00) 16.4 6.39 (10:50) 3.33 (10:30) 0.2 0 0.2 0 0
15-05-2020 18.2 (13:20) 9 (04:00) 13.6 5.83 (13:40) 3.06 (13:30) 3.6 0 0 3.4 0.2
14-05-2020 17.9 (17:30) 11.3 (00:00) 14.6 13.61 (16:10) 6.39 (16:10) 10 0 8.8 1.2 0
13-05-2020 23 (17:40) 10.8 (00:00) 16.9 10.28 (03:50) 5.28 (12:30) 1.4 1.4 0 0 0
12-05-2020 22.4 (13:30) 13.7 (22:50) 18 10.83 (14:30) 5.83 (15:00) 3 0 0 2.8 0.2
11-05-2020 24.3 (16:30) 15 (00:00) 19.6 13.89 (13:50) 6.11 (14:50) 0 0 0 0 0
10-05-2020 22.8 (17:40) 13.3 (00:00) 18 16.11 (12:00) 7.78 (13:30) 6.2 4.4 1.6 0 0.2
09-05-2020 25.4 (14:40) 14.1 (07:00) 19.8 6.67 (15:10) 3.89 (15:00) 0 0 0 0 0
08-05-2020 23.1 (15:20) 12 (00:00) 17.6 7.5 (14:20) 3.89 (12:30) 0 0 0 0 0
07-05-2020 24.8 (13:30) 13.1 (00:00) 18.9 8.33 (14:10) 4.44 (17:30) 0 0 0 0 0
06-05-2020 27.9 (16:20) 13.9 (00:00) 20.9 7.5 (15:10) 4.72 (17:00) 0 0 0 0 0
05-05-2020 31 (15:00) 13.3 (00:00) 22.2 6.11 (15:40) 3.61 (15:40) 0 0 0 0 0
04-05-2020 27.4 (15:50) 12.8 (00:00) 20.1 6.11 (16:00) 3.33 (16:30) 0 0 0 0 0
03-05-2020 28.1 (13:40) 14 (06:40) 21.1 6.67 (15:00) 3.89 (14:50) 0 0 0 0 0
02-05-2020 31.1 (17:20) 18.1 (07:20) 24.6 10.28 (03:10) 5.28 (15:20) 0 0 0 0 0
01-05-2020 27.5 (17:00) 15.6 (00:00) 21.6 13.33 (11:10) 7.78 (11:10) 0 0 0 0 0
30-04-2020 24.2 (16:10) 15.3 (08:30) 19.8 13.06 (05:30) 6.11 (11:40) 0 0 0 0 0
29-04-2020 24 (16:00) 11.7 (00:00) 17.8 11.11 (19:10) 5 (17:30) 0 0 0 0 0
28-04-2020 22 (17:50) 10 (07:20) 16 11.39 (18:10) 5.28 (16:20) 0 0 0 0 0
27-04-2020 23 (17:00) 12.4 (00:00) 17.7 13.33 (19:20) 4.44 (18:10) 0 0 0 0 0
26-04-2020 23 (13:10) 10.1 (06:20) 16.6 10 (13:00) 3.89 (15:40) 7.6 0 0 4.8 2.8

Gráficas

Temp. máximas Temp. mínimas Temp. medias Precipitaciones Rachas de viento máximas Velocidades máximas media en intervalos de 10 minutos

Datos horarios

Fecha y hora oficial Temperatura (ºC) Velocidad del viento (km/h) Dirección del viento Racha (km/h) Dirección de racha Precipitación (mm) Presión (hPa) Tendencia (hPa) Humedad (%)
2020-05-25 23:00:00 16.9 0 Calma 6 Nordeste 0 -- -- 81
2020-05-25 22:00:00 17.7 3 Nordeste 5 Nordeste 0 -- -- 77
2020-05-25 21:00:00 19.9 4 Norte 9 Nordeste 0 -- -- 67
2020-05-25 20:00:00 21.4 4 Nordeste 9 Este 0 -- -- 61
2020-05-25 19:00:00 21.1 6 Este 10 Este 0 -- -- 65
2020-05-25 18:00:00 21.4 6 Este 13 Este 0 -- -- 64
2020-05-25 17:00:00 22.1 6 Este 12 Este 0 -- -- 60
2020-05-25 16:00:00 22.7 5 Sudeste 12 Sudeste 0 -- -- 60
2020-05-25 15:00:00 22.3 6 Sudeste 16 Este 0 -- -- 61
2020-05-25 14:00:00 22.3 3 Nordeste 13 Este 0 -- -- 58
2020-05-25 13:00:00 22.8 9 Este 20 Sudeste 0 -- -- 55
2020-05-25 12:00:00 22.7 7 Este 18 Este 0 -- -- 52
2020-05-25 11:00:00 21.4 6 Sudeste 13 Este 0 -- -- 59
2020-05-25 10:00:00 20.7 4 Nordeste 9 Este 0 -- -- 65
2020-05-25 09:00:00 18.8 2 Sudeste 7 Sudoeste 0 -- -- 74
2020-05-25 08:00:00 15.2 3 Sudoeste 6 Sudoeste 0 -- -- 85
2020-05-25 07:00:00 13.5 2 Sudoeste 8 Oeste 0 -- -- 89
2020-05-25 06:00:00 13.6 3 Oeste 7 Noroeste 0 -- -- 87
2020-05-25 05:00:00 14.3 5 Oeste 8 Oeste 0 -- -- 85
2020-05-25 04:00:00 14.7 4 Oeste 9 Oeste 0 -- -- 85
2020-05-25 03:00:00 15 5 Oeste 10 Oeste 0 -- -- 84
2020-05-25 02:00:00 15.5 5 Sudoeste 10 Oeste 0 -- -- 83
2020-05-25 01:00:00 15.9 4 Sudoeste 9 Oeste 0 -- -- 82
2020-05-25 00:00:00 16.9 0 Calma 2 Sudoeste 0 -- -- 80
2020-05-24 23:00:00 18.3 0 Calma 6 Este 0 -- -- 78
2020-05-24 22:00:00 19.5 3 Este 12 Este 0 -- -- 75
2020-05-24 21:00:00 20.1 6 Este 14 Este 0 -- -- 73
2020-05-24 20:00:00 20.6 7 Este 20 Sudeste 0 -- -- 73
2020-05-24 19:00:00 21.9 9 Nordeste 19 Este 0 -- -- 70
2020-05-24 18:00:00 22.6 9 Este 21 Este 0 -- -- 68
2020-05-24 17:00:00 23.7 11 Este 25 Este 0 -- -- 65
2020-05-24 16:00:00 25 11 Este 21 Sudeste 0 -- -- 59
2020-05-24 15:00:00 24.9 13 Sudeste 22 Sudeste 0 -- -- 57
2020-05-24 14:00:00 25 14 Sudeste 24 Este 0 -- -- 57
2020-05-24 13:00:00 24.8 12 Este 20 Sudeste 0 -- -- 57
2020-05-24 12:00:00 22.7 8 Nordeste 20 Este 0 -- -- 64
2020-05-24 11:00:00 21.9 7 Este 17 Nordeste 0 -- -- 71
2020-05-24 10:00:00 20.7 8 Este 15 Este 0 -- -- 75
2020-05-24 09:00:00 19.9 8 Nordeste 15 Nordeste 0 -- -- 81
2020-05-24 08:00:00 17.4 0 Calma 4 Oeste 0 -- -- 91
2020-05-24 07:00:00 16.3 0 Calma 5 Oeste 0 -- -- 90
2020-05-24 06:00:00 16.1 0 Calma 5 Sudoeste 0 -- -- 88
2020-05-24 05:00:00 15.8 3 Sudoeste 5 Sudoeste 0 -- -- 88
2020-05-24 04:00:00 15.2 0 Calma 7 Sudoeste 0 -- -- 88
2020-05-24 03:00:00 15.6 0 Calma 8 Sudoeste 0 -- -- 82
2020-05-24 02:00:00 16.5 4 Sudoeste 8 Oeste 0 -- -- 80
2020-05-24 01:00:00 17.1 0 Calma 4 Sudoeste 0 -- -- 78
2020-05-24 00:00:00 18.5 2 Oeste 5 Oeste 0 -- -- 73
2020-05-23 23:00:00 19.9 0 Calma 6 Este 0 -- -- 68
2020-05-23 22:00:00 21.4 4 Nordeste 9 Nordeste 0 -- -- 62
2020-05-23 21:00:00 24.1 8 Nordeste 16 Nordeste 0 -- -- 51
2020-05-23 20:00:00 26.7 9 Nordeste 17 Nordeste 0 -- -- 46
2020-05-23 19:00:00 28.6 9 Este 17 Este 0 -- -- 45
2020-05-23 18:00:00 30.1 8 Nordeste 18 Nordeste 0 -- -- 40
2020-05-23 17:00:00 30.5 12 Este 19 Sudeste 0 -- -- 42
2020-05-23 16:00:00 31.3 9 Este 18 Este 0 -- -- 40
2020-05-23 15:00:00 31.2 10 Este 19 Este 0 -- -- 39
2020-05-23 14:00:00 30.9 10 Este 18 Este 0 -- -- 36
2020-05-23 13:00:00 29.8 8 Nordeste 15 Nordeste 0 -- -- 38
2020-05-23 12:00:00 28.2 6 Nordeste 13 Nordeste 0 -- -- 40
2020-05-23 11:00:00 26.7 5 Sudeste 9 Nordeste 0 -- -- 43
2020-05-23 10:00:00 24.2 5 Nordeste 9 Nordeste 0 -- -- 52
2020-05-23 09:00:00 21.9 2 Sur 6 Sudoeste 0 -- -- 60
2020-05-23 08:00:00 17 3 Sudoeste 5 Sudoeste 0 -- -- 77
2020-05-23 07:00:00 14.8 2 Oeste 6 Oeste 0 -- -- 83
2020-05-23 06:00:00 15.3 4 Oeste 8 Oeste 0 -- -- 81
2020-05-23 05:00:00 15.5 3 Oeste 8 Oeste 0 -- -- 83
2020-05-23 04:00:00 16 4 Oeste 8 Oeste 0 -- -- 81
2020-05-23 03:00:00 16.3 4 Oeste 8 Sudoeste 0 -- -- 80
2020-05-23 02:00:00 16.8 0 Calma 4 Oeste 0 -- -- 79
2020-05-23 01:00:00 17.9 0 Calma 4 Noroeste 0 -- -- 75
2020-05-23 00:00:00 19.4 3 Noroeste 9 Oeste 0 -- -- 69
2020-05-22 23:00:00 20.6 2 Norte 13 Oeste 0 -- -- 66
2020-05-22 22:00:00 22.7 6 Oeste 11 Oeste 0 -- -- 60
2020-05-22 21:00:00 24.5 4 Nordeste 11 Este 0 -- -- 51
2020-05-22 20:00:00 26.8 8 Nordeste 15 Este 0 -- -- 46
2020-05-22 19:00:00 28.8 9 Nordeste 17 Nordeste 0 -- -- 43
2020-05-22 18:00:00 30 9 Este 19 Este 0 -- -- 43
2020-05-22 17:00:00 30.7 12 Este 22 Este 0 -- -- 41
2020-05-22 16:00:00 31.5 11 Sudeste 19 Este 0 -- -- 41
2020-05-22 15:00:00 31.7 9 Este 20 Este 0 -- -- 38
2020-05-22 14:00:00 31.2 8 Este 17 Este 0 -- -- 39
2020-05-22 13:00:00 30.5 8 Sudeste 15 Este 0 -- -- 42
2020-05-22 12:00:00 29.1 6 Este 14 Este 0 -- -- 44
2020-05-22 11:00:00 27.7 7 Este 13 Nordeste 0 -- -- 50
2020-05-22 10:00:00 25.8 6 Nordeste 10 Este 0 -- -- 55
2020-05-22 09:00:00 23.1 0 Calma 2 Nordeste 0 -- -- 64
2020-05-22 08:00:00 17.8 0 Calma 3 Oeste 0 -- -- 85
2020-05-22 07:00:00 15.7 0 Calma 8 Oeste 0 -- -- 88
2020-05-22 06:00:00 15.5 0 Calma 4 Oeste 0 -- -- 89
2020-05-22 05:00:00 16.4 3 Sudoeste 8 Oeste 0 -- -- 85
2020-05-22 04:00:00 16.6 2 Sudoeste 5 Sudoeste 0 -- -- 84
2020-05-22 03:00:00 17.1 3 Sudoeste 8 Sudoeste 0 -- -- 84
2020-05-22 02:00:00 17.7 4 Oeste 7 Oeste 0 -- -- 83
2020-05-22 01:00:00 18.5 5 Oeste 8 Oeste 0 -- -- 81
2020-05-22 00:00:00 19.2 0 Calma 5 Oeste 0 -- -- 78
2020-05-21 23:00:00 20.3 0 Calma 3 Nordeste 0 -- -- 75
2020-05-21 22:00:00 22.3 0 Calma 6 Nordeste 0 -- -- 69
2020-05-21 21:00:00 25.3 3 Nordeste 9 Este 0 -- -- 56
2020-05-21 20:00:00 27.8 6 Este 12 Este 0 -- -- 46
2020-05-21 19:00:00 29.6 6 Este 16 Este 0 -- -- 44
2020-05-21 18:00:00 30 8 Sudeste 19 Sudeste 0 -- -- 42
2020-05-21 17:00:00 30.5 9 Este 21 Este 0 -- -- 40
2020-05-21 16:00:00 31.2 12 Sudeste 22 Este 0 -- -- 37
2020-05-21 15:00:00 30.9 10 Sudeste 20 Este 0 -- -- 35
2020-05-21 14:00:00 30.2 8 Este 18 Nordeste 0 -- -- 35
2020-05-21 13:00:00 29.1 8 Este 13 Este 0 -- -- 37
2020-05-21 12:00:00 28 4 Nordeste 12 Este 0 -- -- 36
2020-05-21 11:00:00 27 3 Este 9 Este 0 -- -- 38
2020-05-21 10:00:00 24.5 3 Nordeste 6 Este 0 -- -- 48
2020-05-21 09:00:00 21.4 2 Este 9 Sudoeste 0 -- -- 55
2020-05-21 08:00:00 16.5 5 Sudoeste 9 Sudoeste 0 -- -- 64
2020-05-21 07:00:00 14 2 Sudoeste 9 Sudoeste 0 -- -- 72
2020-05-21 06:00:00 14.1 2 Sudoeste 9 Sudoeste 0 -- -- 69
2020-05-21 05:00:00 14.3 3 Sudoeste 10 Sudoeste 0 -- -- 69
2020-05-21 04:00:00 14.5 3 Oeste 8 Oeste 0 -- -- 71
2020-05-21 03:00:00 15 3 Sudoeste 7 Oeste 0 -- -- 68
2020-05-21 02:00:00 16.6 5 Oeste 11 Oeste 0 -- -- 61
2020-05-21 01:00:00 16.6 4 Oeste 9 Oeste 0 -- -- 69
2020-05-21 00:00:00 18.2 5 Oeste 11 Oeste 0 -- -- 64
2020-05-20 23:00:00 19.1 7 Oeste 10 Oeste 0 -- -- 64
2020-05-20 22:00:00 19.8 0 Calma 3 Noroeste 0 -- -- 63
2020-05-20 21:00:00 23 2 Nordeste 18 Nordeste 0 -- -- 51
2020-05-20 20:00:00 26.1 8 Nordeste 15 Nordeste 0 -- -- 49
2020-05-20 19:00:00 28.9 8 Este 19 Nordeste 0 -- -- 39
2020-05-20 18:00:00 30.2 12 Este 19 Este 0 -- -- 39
2020-05-20 17:00:00 30.9 10 Este 27 Este 0 -- -- 39
2020-05-20 16:00:00 31.7 10 Este 19 Este 0 -- -- 35
2020-05-20 15:00:00 31 8 Este 16 Este 0 -- -- 36
2020-05-20 14:00:00 30.2 7 Este 19 Este 0 -- -- 37
2020-05-20 13:00:00 29.7 7 Este 15 Nordeste 0 -- -- 38
2020-05-20 12:00:00 28.2 3 Este 13 Este 0 -- -- 41
2020-05-20 11:00:00 26.8 5 Nordeste 11 Este 0 -- -- 39
2020-05-20 10:00:00 25.5 3 Este 6 Este 0 -- -- 46
2020-05-20 09:00:00 22.1 2 Sudoeste 5 Nordeste 0 -- -- 55
2020-05-20 08:00:00 17 0 Calma 6 Sudoeste 0 -- -- 67
2020-05-20 07:00:00 14 5 Sudoeste 8 Sudoeste 0 -- -- 77
2020-05-20 06:00:00 14.5 3 Oeste 9 Oeste 0 -- -- 76
2020-05-20 05:00:00 14.7 0 Calma 9 Sudoeste 0 -- -- 77
2020-05-20 04:00:00 15.6 6 Oeste 9 Oeste 0 -- -- 74
2020-05-20 03:00:00 15.4 4 Sudoeste 8 Oeste 0 -- -- 73
2020-05-20 02:00:00 16.1 2 Oeste 10 Oeste 0 -- -- 68
2020-05-20 01:00:00 17.4 3 Oeste 10 Sudoeste 0 -- -- 61
2020-05-20 00:00:00 18.4 6 Oeste 12 Sudoeste 0 -- -- 63
2020-05-19 23:00:00 19.1 8 Sudoeste 13 Sudoeste 0 -- -- 62
2020-05-19 22:00:00 20.4 0 Calma 8 Norte 0 -- -- 61
2020-05-19 21:00:00 23.7 5 Norte 12 Nordeste 0 -- -- 48
2020-05-19 20:00:00 26.5 9 Nordeste 16 Nordeste 0 -- -- 43
2020-05-19 19:00:00 29 8 Este 17 Este 0 -- -- 39
2020-05-19 18:00:00 30.9 5 Nordeste 15 Noroeste 0 -- -- 32
2020-05-19 17:00:00 31.1 6 Sudoeste 17 Noroeste 0 -- -- 30
2020-05-19 16:00:00 30.8 8 Oeste 24 Sudoeste 0 -- -- 24
2020-05-19 15:00:00 30.2 9 Oeste 23 Sudoeste 0 -- -- 29
2020-05-19 14:00:00 29.6 6 Noroeste 24 Sudoeste 0 -- -- 28
2020-05-19 13:00:00 28.6 4 Sudeste 12 Sudeste 0 -- -- 33
2020-05-19 12:00:00 27.1 6 Este 12 Este 0 -- -- 43
2020-05-19 11:00:00 24.8 4 Sudeste 9 Este 0 -- -- 48
2020-05-19 10:00:00 22.8 2 Este 5 Este 0 -- -- 54
2020-05-19 09:00:00 19.3 2 Este 5 Nordeste 0 -- -- 63
2020-05-19 08:00:00 14.8 3 Oeste 7 Oeste 0 -- -- 77
2020-05-19 07:00:00 12.6 4 Oeste 9 Oeste 0 -- -- 78
2020-05-19 06:00:00 11.8 0 Calma 7 Oeste 0 -- -- 83
2020-05-19 05:00:00 12.3 0 Calma 9 Oeste 0 -- -- 82
2020-05-19 04:00:00 13.1 4 Oeste 8 Oeste 0 -- -- 78
2020-05-19 03:00:00 13.8 0 Calma 7 Oeste 0 -- -- 77
2020-05-19 02:00:00 14.7 5 Oeste 8 Noroeste 0 -- -- 72
2020-05-19 01:00:00 15.4 5 Sudoeste 9 Sudoeste 0 -- -- 70
2020-05-19 00:00:00 15.8 6 Sudoeste 12 Sudoeste 0 -- -- 70
2020-05-18 23:00:00 16.6 4 Sur 11 Sudoeste 0 -- -- 72
2020-05-18 22:00:00 18.2 0 Calma 9 Norte 0 -- -- 67
2020-05-18 21:00:00 20.5 6 Nordeste 18 Norte 0 -- -- 55
2020-05-18 20:00:00 21.9 15 Nordeste 22 Norte 0 -- -- 54
2020-05-18 19:00:00 24.7 15 Nordeste 25 Este 0 -- -- 49
2020-05-18 18:00:00 28.1 7 Este 21 Sur 0 -- -- 39
2020-05-18 17:00:00 28.3 6 Norte 16 Sur 0 -- -- 27
2020-05-18 16:00:00 27.5 6 Nordeste 23 Este 0 -- -- 28
2020-05-18 15:00:00 27.1 5 Este 14 Sudoeste 0 -- -- 30
2020-05-18 14:00:00 26.5 7 Sur 17 Sudoeste 0 -- -- 34
2020-05-18 13:00:00 25.5 6 Este 16 Sudoeste 0 -- -- 39
2020-05-18 12:00:00 24.5 8 Sudoeste 15 Sudoeste 0 -- -- 45
2020-05-18 11:00:00 23.4 8 Este 12 Este 0 -- -- 51
2020-05-18 10:00:00 21.6 0 Calma 5 Este 0 -- -- 57
2020-05-18 09:00:00 18.7 3 Este 5 Este 0 -- -- 71
2020-05-18 08:00:00 14.1 0 Calma 6 Noroeste 0 -- -- 86
2020-05-18 07:00:00 11.8 3 Oeste 9 Oeste 0 -- -- 89
2020-05-18 06:00:00 12.5 6 Oeste 9 Oeste 0 -- -- 87
2020-05-18 05:00:00 11.8 2 Sudoeste 5 Oeste 0 -- -- 90
2020-05-18 04:00:00 12.5 2 Sudoeste 8 Norte 0 -- -- 86
2020-05-18 03:00:00 13.5 0 Calma 10 Oeste 0 -- -- 82
2020-05-18 02:00:00 14.4 6 Oeste 10 Sudoeste 0 -- -- 82
2020-05-18 01:00:00 15.4 6 Oeste 9 Oeste 0 -- -- 80
2020-05-18 00:00:00 15.8 2 Oeste 8 Oeste 0 -- -- 82
2020-05-17 23:00:00 16.6 3 Oeste 9 Sudoeste 0 -- -- 76
2020-05-17 22:00:00 17.3 5 Sudoeste 9 Oeste 0 -- -- 75
2020-05-17 21:00:00 19 3 Norte 15 Nordeste 0 -- -- 63
2020-05-17 20:00:00 21.5 9 Este 14 Este 0 -- -- 57
2020-05-17 19:00:00 22.7 3 Sudoeste 15 Sudoeste 0 -- -- 53
2020-05-17 18:00:00 21.4 8 Sudoeste 13 Sudoeste 0 -- -- 64
2020-05-17 17:00:00 19.3 8 Sudoeste 12 Oeste 0.4 -- -- 75
2020-05-17 16:00:00 21 3 Oeste 15 Sudoeste 0 -- -- 58
2020-05-17 15:00:00 21.7 4 Norte 23 Sudoeste 0 -- -- 57
2020-05-17 14:00:00 22 11 Sur 19 Sudeste 0 -- -- 56
2020-05-17 13:00:00 21.7 11 Este 22 Este 0 -- -- 61
2020-05-17 12:00:00 20 7 Este 14 Nordeste 0 -- -- 62
2020-05-17 11:00:00 19.8 8 Sudeste 15 Este 0 -- -- 64
2020-05-17 10:00:00 18.9 3 Este 7 Nordeste 0 -- -- 67
2020-05-17 09:00:00 15.2 2 Este 10 Sudoeste 0 -- -- 86
2020-05-17 08:00:00 14.1 6 Sudoeste 9 Sudoeste 0 -- -- 85
2020-05-17 07:00:00 13.1 2 Oeste 4 Oeste 0 -- -- 91
2020-05-17 06:00:00 13.7 2 Sudeste 6 Oeste 0 -- -- 89
2020-05-17 05:00:00 13.8 3 Oeste 5 Oeste 0 -- -- 90
2020-05-17 04:00:00 13.8 0 Calma 5 Oeste 0 -- -- 91
2020-05-17 03:00:00 14.2 5 Oeste 7 Oeste 0 -- -- 89
2020-05-17 02:00:00 13.9 0 Calma 4 Oeste 0 -- -- 92
2020-05-17 01:00:00 14.3 2 Norte 7 Oeste 0 -- -- 89
2020-05-17 00:00:00 14.5 5 Oeste 9 Oeste 0 -- -- 88
2020-05-16 23:00:00 15.5 0 Calma 4 Oeste 0 -- -- 86
2020-05-16 22:00:00 16.1 0 Calma 3 Noroeste 0 -- -- 86
2020-05-16 21:00:00 16.9 0 Calma 7 Sudeste 0 -- -- 79
2020-05-16 20:00:00 17.9 5 Este 12 Nordeste 0 -- -- 73
2020-05-16 19:00:00 18.8 8 Nordeste 19 Este 0 -- -- 71
2020-05-16 18:00:00 19.9 6 Nordeste 14 Nordeste 0 -- -- 62
2020-05-16 17:00:00 19.4 5 Nordeste 14 Este 0 -- -- 70
2020-05-16 16:00:00 19 3 Sudoeste 15 Este 0 -- -- 69
2020-05-16 15:00:00 17.8 8 Sur 21 Este 0 -- -- 75
2020-05-16 14:00:00 18 11 Nordeste 16 Nordeste 0 -- -- 74
2020-05-16 13:00:00 16.2 3 Este 14 Nordeste 0 -- -- 80
2020-05-16 12:00:00 16 9 Nordeste 19 Nordeste 0.2 -- -- 78
2020-05-16 11:00:00 16.3 10 Nordeste 23 Nordeste 0 -- -- 75
2020-05-16 10:00:00 15.5 5 Nordeste 16 Este 0 -- -- 80
2020-05-16 09:00:00 15 0 Calma 6 Nordeste 0 -- -- 88
2020-05-16 08:00:00 13.9 0 Calma 3 Sudeste 0 -- -- 95
2020-05-16 07:00:00 13.3 0 Calma 3 Sudoeste 0 -- -- 95
2020-05-16 06:00:00 13.1 0 Calma 5 Sudoeste 0 -- -- 94
2020-05-16 05:00:00 13 2 Sudoeste 4 Sudoeste 0 -- -- 93
2020-05-16 04:00:00 12.9 3 Sur 6 Sudoeste 0 -- -- 94
2020-05-16 03:00:00 13.1 0 Calma 7 Sudoeste 0 -- -- 94
2020-05-16 02:00:00 13 3 Sudoeste 6 Oeste 0 -- -- 94
2020-05-16 01:00:00 12.9 3 Sudoeste 7 Oeste 0 -- -- 94
2020-05-16 00:00:00 13.2 0 Calma 7 Sudoeste 0 -- -- 94
2020-05-15 23:00:00 13.5 6 Sudoeste 7 Sudoeste 0 -- -- 93
2020-05-15 22:00:00 14.1 4 Oeste 6 Oeste 0 -- -- 92
2020-05-15 21:00:00 14.5 2 Oeste 4 Sudoeste 0 -- -- 92
2020-05-15 20:00:00 14.6 3 Sudoeste 6 Oeste 0 -- -- 91
2020-05-15 19:00:00 15.1 0 Calma 5 Oeste 0.2 -- -- 87
2020-05-15 18:00:00 15.4 3 Oeste 6 Sudoeste 0.6 -- -- 87
2020-05-15 17:00:00 15.7 4 Oeste 9 Este 2.2 -- -- 86
2020-05-15 16:00:00 16.5 5 Este 17 Este 0.6 -- -- 79
2020-05-15 15:00:00 17 8 Nordeste 18 Nordeste 0 -- -- 69
2020-05-15 14:00:00 17.6 9 Este 21 Nordeste 0 -- -- 62
2020-05-15 13:00:00 18 5 Sudeste 15 Nordeste 0 -- -- 64
2020-05-15 12:00:00 16.9 5 Nordeste 8 Este 0 -- -- 72
2020-05-15 11:00:00 17.1 4 Nordeste 10 Este 0 -- -- 69
2020-05-15 10:00:00 15.5 3 Sur 6 Nordeste 0 -- -- 76
2020-05-15 09:00:00 14.2 0 Calma 3 Sudoeste 0 -- -- 74
2020-05-15 08:00:00 11.8 2 Este 6 Norte 0 -- -- 88
2020-05-15 07:00:00 9.4 2 Oeste 8 Norte 0 -- -- 91
2020-05-15 06:00:00 9.8 4 Norte 13 Oeste 0 -- -- 89
2020-05-15 05:00:00 9.3 3 Oeste 8 Noroeste 0 -- -- 92
2020-05-15 04:00:00 9 0 Calma 4 Noroeste 0 -- -- 92
2020-05-15 03:00:00 10 2 Sur 10 Sudoeste 0 -- -- 89
2020-05-15 02:00:00 10 0 Calma 8 Norte 0 -- -- 89
2020-05-15 01:00:00 11.7 5 Oeste 12 Oeste 0 -- -- 84
2020-05-15 00:00:00 11.5 0 Calma 11 Oeste 0 -- -- 85
2020-05-14 23:00:00 12.2 3 Sudoeste 6 Oeste 0 -- -- 84
2020-05-14 22:00:00 13.7 3 Sudoeste 9 Oeste 0 -- -- 77
2020-05-14 21:00:00 15.4 3 Oeste 8 Noroeste 0 -- -- 70
2020-05-14 20:00:00 17 4 Oeste 26 Sur 0 -- -- 60
2020-05-14 19:00:00 17.3 10 Sudoeste 26 Sudoeste 0 -- -- 57
2020-05-14 18:00:00 17.9 14 Sudoeste 35 Oeste 0 -- -- 52
2020-05-14 17:00:00 16.9 15 Sudoeste 49 Sudoeste 0 -- -- 55
2020-05-14 16:00:00 15.3 18 Sudoeste 44 Sudoeste 0 -- -- 69
2020-05-14 15:00:00 14.4 11 Sudoeste 31 Sudoeste 0.2 -- -- 74
2020-05-14 14:00:00 13.2 9 Sudoeste 33 Sudoeste 0.4 -- -- 80
2020-05-14 13:00:00 12.2 10 Sudoeste 30 Oeste 0.6 -- -- 82
2020-05-14 12:00:00 11.7 7 Sudoeste 33 Sudoeste 0.6 -- -- 81
2020-05-14 11:00:00 11.4 8 Sudoeste 24 Sudoeste 1.4 -- -- 81
2020-05-14 10:00:00 11.7 10 Sudoeste 30 Sudoeste 2.6 -- -- 86
2020-05-14 09:00:00 12.1 4 Oeste 17 Norte 2.6 -- -- 85
2020-05-14 08:00:00 13.1 8 Noroeste 18 Noroeste 1.6 -- -- 86
2020-05-14 07:00:00 13.6 2 Sudoeste 9 Sudoeste 0 -- -- 82
2020-05-14 06:00:00 13.2 4 Oeste 15 Sudoeste 0 -- -- 77
2020-05-14 05:00:00 12.5 4 Sudoeste 8 Sudoeste 0 -- -- 79
2020-05-14 04:00:00 12.7 3 Sudoeste 12 Sudoeste 0 -- -- 76
2020-05-14 03:00:00 12.2 3 Sudoeste 8 Oeste 0 -- -- 77
2020-05-14 02:00:00 13.1 3 Oeste 14 Sudoeste 0 -- -- 74
2020-05-14 01:00:00 13.6 5 Sudoeste 13 Oeste 0 -- -- 70
2020-05-14 00:00:00 14.1 8 Oeste 13 Oeste 0 -- -- 67
2020-05-13 23:00:00 15 2 Sur 12 Sudoeste 0 -- -- 65
2020-05-13 22:00:00 16 5 Sudoeste 10 Oeste 0 -- -- 62
2020-05-13 21:00:00 19.1 3 Oeste 14 Norte 0 -- -- 54
2020-05-13 20:00:00 20.8 0 Calma 15 Noroeste 0 -- -- 48
2020-05-13 19:00:00 22.3 6 Oeste 24 Sudoeste 0 -- -- 42
2020-05-13 18:00:00 22.9 5 Oeste 22 Sudoeste 0 -- -- 41
2020-05-13 17:00:00 22.3 6 Sudoeste 30 Sudoeste 0 -- -- 42
2020-05-13 16:00:00 22.7 9 Sudoeste 28 Sudoeste 0 -- -- 46
2020-05-13 15:00:00 21.1 9 Sudoeste 27 Sudoeste 0 -- -- 50
2020-05-13 14:00:00 20.4 10 Sudoeste 31 Sudoeste 0 -- -- 49
2020-05-13 13:00:00 20.1 12 Sudoeste 33 Sudoeste 0 -- -- 53
2020-05-13 12:00:00 19.4 12 Sudoeste 26 Sudoeste 0 -- -- 56
2020-05-13 11:00:00 19 9 Oeste 24 Oeste 0 -- -- 60
2020-05-13 10:00:00 17.6 9 Oeste 23 Oeste 0 -- -- 60
2020-05-13 09:00:00 16.6 6 Sudoeste 17 Sudeste 0 -- -- 65
2020-05-13 08:00:00 13.3 7 Nordeste 15 Nordeste 0 -- -- 76
2020-05-13 07:00:00 11.5 5 Nordeste 19 Sudoeste 0 -- -- 80
2020-05-13 06:00:00 12.5 10 Sudoeste 22 Sudoeste 0 -- -- 75
2020-05-13 05:00:00 12.3 9 Sudoeste 24 Sudoeste 0 -- -- 78
2020-05-13 04:00:00 12.6 16 Sudoeste 37 Sudoeste 0 -- -- 78
2020-05-13 03:00:00 10.9 4 Norte 7 Nordeste 0 -- -- 92
2020-05-13 02:00:00 11.9 0 Calma 7 Norte 0.2 -- -- 91
2020-05-13 01:00:00 12.7 3 Oeste 14 Sudoeste 1.2 -- -- 88
2020-05-13 00:00:00 13.9 8 Sudoeste 16 Sudoeste 0 -- -- 78
2020-05-12 23:00:00 13.7 5 Noroeste 21 Sudoeste 0 -- -- 79
2020-05-12 22:00:00 15 5 Noroeste 15 Noroeste 0 -- -- 81
2020-05-12 21:00:00 15.6 4 Noroeste 9 Noroeste 0 -- -- 82
2020-05-12 20:00:00 15.9 4 Noroeste 8 Norte 0 -- -- 83
2020-05-12 19:00:00 15.9 0 Calma 6 Sudoeste 0.2 -- -- 85
2020-05-12 18:00:00 16.1 2 Sudoeste 14 Este 2.6 -- -- 86
2020-05-12 17:00:00 17.2 11 Nordeste 19 Nordeste 0.2 -- -- 74
2020-05-12 16:00:00 17.8 9 Nordeste 32 Este 0 -- -- 73
2020-05-12 15:00:00 19.9 21 Este 39 Nordeste 0 -- -- 60
2020-05-12 14:00:00 21.7 18 Nordeste 31 Este 0 -- -- 54
2020-05-12 13:00:00 21.3 14 Nordeste 28 Nordeste 0 -- -- 52
2020-05-12 12:00:00 21.2 8 Este 18 Nordeste 0 -- -- 53
2020-05-12 11:00:00 21.2 6 Nordeste 11 Nordeste 0 -- -- 56
2020-05-12 10:00:00 17.7 0 Calma 9 Nordeste 0 -- -- 68
2020-05-12 09:00:00 15.2 4 Nordeste 8 Oeste 0 -- -- 78
2020-05-12 08:00:00 14.7 2 Oeste 8 Norte 0 -- -- 77
2020-05-12 07:00:00 14.6 0 Calma 7 Norte 0 -- -- 76
2020-05-12 06:00:00 15.1 4 Norte 13 Sur 0 -- -- 71
2020-05-12 05:00:00 16 4 Oeste 18 Oeste 0 -- -- 67
2020-05-12 04:00:00 14.9 3 Noroeste 7 Norte 0 -- -- 75
2020-05-12 03:00:00 15.8 2 Norte 19 Sudoeste 0 -- -- 72
2020-05-12 02:00:00 16.8 5 Oeste 21 Sudoeste 0 -- -- 67
2020-05-12 01:00:00 17.1 5 Oeste 10 Oeste 0 -- -- 66
2020-05-12 00:00:00 18.7 5 Oeste 18 Sudoeste 0 -- -- 59
2020-05-11 23:00:00 19.4 9 Sudoeste 18 Oeste 0 -- -- 56
2020-05-11 22:00:00 19.7 6 Oeste 23 Sudoeste 0 -- -- 54
2020-05-11 21:00:00 20.1 5 Oeste 14 Oeste 0 -- -- 51
2020-05-11 20:00:00 20.4 5 Este 27 Sudoeste 0 -- -- 57
2020-05-11 19:00:00 22.1 10 Oeste 33 Sudoeste 0 -- -- 50
2020-05-11 18:00:00 23.2 13 Sudoeste 36 Sudoeste 0 -- -- 47
2020-05-11 17:00:00 24.3 17 Sudoeste 40 Sudoeste 0 -- -- 42
2020-05-11 16:00:00 23.5 8 Oeste 39 Noroeste 0 -- -- 46
2020-05-11 15:00:00 23.7 17 Sudoeste 46 Sudoeste 0 -- -- 42
2020-05-11 14:00:00 22.1 14 Sudoeste 50 Sudoeste 0 -- -- 46
2020-05-11 13:00:00 21 15 Sudoeste 41 Sudoeste 0 -- -- 46
2020-05-11 12:00:00 21 15 Sudoeste 39 Sudoeste 0 -- -- 49
2020-05-11 11:00:00 19.9 21 Sudoeste 39 Sudoeste 0 -- -- 51
2020-05-11 10:00:00 19.3 17 Sudoeste 36 Sudoeste 0 -- -- 54
2020-05-11 09:00:00 17.9 11 Sudoeste 37 Sudoeste 0 -- -- 59
2020-05-11 08:00:00 15.5 8 Oeste 29 Sudoeste 0 -- -- 69
2020-05-11 07:00:00 15.4 14 Sudoeste 31 Sudoeste 0 -- -- 69
2020-05-11 06:00:00 15.3 10 Sudoeste 25 Sudoeste 0 -- -- 68
2020-05-11 05:00:00 15 6 Sudoeste 32 Sudoeste 0 -- -- 68
2020-05-11 04:00:00 15.2 12 Sudoeste 34 Sudoeste 0 -- -- 67
2020-05-11 03:00:00 15.3 11 Sudoeste 26 Sudoeste 0 -- -- 65
2020-05-11 02:00:00 15.5 7 Sudoeste 25 Sudoeste 0 -- -- 63
2020-05-11 01:00:00 15.7 12 Sudoeste 33 Oeste 0 -- -- 61
2020-05-11 00:00:00 15.9 7 Oeste 21 Oeste 0 -- -- 57
2020-05-10 23:00:00 13.9 4 Sudoeste 12 Sur 0 -- -- 71
2020-05-10 22:00:00 15.4 5 Sudoeste 13 Oeste 0 -- -- 66
2020-05-10 21:00:00 17.8 7 Oeste 35 Oeste 0 -- -- 54
2020-05-10 20:00:00 18.9 14 Sudoeste 30 Sudoeste 0 -- -- 49
2020-05-10 19:00:00 17.9 14 Sudoeste 46 Sudoeste 0.2 -- -- 60
2020-05-10 18:00:00 21.6 22 Sudoeste 42 Sudoeste 0 -- -- 44
2020-05-10 17:00:00 22.5 17 Sudoeste 47 Sudoeste 0 -- -- 39
2020-05-10 16:00:00 22.5 18 Sudoeste 50 Sudoeste 0 -- -- 38
2020-05-10 15:00:00 21.3 22 Sudoeste 53 Sudoeste 0 -- -- 43
2020-05-10 14:00:00 19.2 25 Sudoeste 56 Oeste 0 -- -- 49
2020-05-10 13:00:00 18.5 19 Sudoeste 45 Oeste 0 -- -- 56
2020-05-10 12:00:00 18.7 23 Sudoeste 58 Sudoeste 0 -- -- 61
2020-05-10 11:00:00 17.9 11 Sudoeste 32 Sudoeste 0 -- -- 69
2020-05-10 10:00:00 14.1 3 Sur 8 Sur 0.2 -- -- 90
2020-05-10 09:00:00 13.6 3 Este 38 Sudoeste 1.4 -- -- 83
2020-05-10 08:00:00 15.2 10 Sudoeste 28 Sudoeste 0 -- -- 76
2020-05-10 07:00:00 13.8 3 Norte 9 Este 0 -- -- 92
2020-05-10 06:00:00 13.7 3 Sudoeste 9 Norte 0 -- -- 94
2020-05-10 05:00:00 14 5 Norte 10 Oeste 0 -- -- 94
2020-05-10 04:00:00 13.9 6 Sudoeste 12 Oeste 0 -- -- 92
2020-05-10 03:00:00 14.6 3 Oeste 8 Oeste 0 -- -- 92
2020-05-10 02:00:00 15.4 5 Sudoeste 13 Oeste 0.2 -- -- 90
2020-05-10 01:00:00 17.4 8 Sudoeste 19 Oeste 4.2 -- -- 84
2020-05-10 00:00:00 17.7 0 Calma 5 Norte 0 -- -- 81
2020-05-09 23:00:00 17.8 3 Este 11 Este 0 -- -- 81
2020-05-09 22:00:00 18 5 Este 13 Este 0 -- -- 81
2020-05-09 21:00:00 18.5 6 Este 12 Este 0 -- -- 81
2020-05-09 20:00:00 19.1 7 Este 15 Este 0 -- -- 79
2020-05-09 19:00:00 19.8 9 Este 18 Este 0 -- -- 75
2020-05-09 18:00:00 21.4 11 Nordeste 21 Nordeste 0 -- -- 67
2020-05-09 17:00:00 24.5 13 Este 24 Nordeste 0 -- -- 60
2020-05-09 16:00:00 24.8 12 Sudeste 24 Este 0 -- -- 59
2020-05-09 15:00:00 24.8 14 Este 23 Este 0 -- -- 58
2020-05-09 14:00:00 24.9 9 Este 22 Este 0 -- -- 57
2020-05-09 13:00:00 24 7 Este 19 Este 0 -- -- 61
2020-05-09 12:00:00 22.3 6 Nordeste 15 Nordeste 0 -- -- 66
2020-05-09 11:00:00 20.5 5 Nordeste 13 Este 0 -- -- 75
2020-05-09 10:00:00 19 5 Este 10 Este 0 -- -- 77
2020-05-09 09:00:00 17 4 Nordeste 14 Nordeste 0 -- -- 83
2020-05-09 08:00:00 14.8 4 Oeste 10 Sudoeste 0 -- -- 90
2020-05-09 07:00:00 14.1 3 Sudoeste 9 Oeste 0 -- -- 90
2020-05-09 06:00:00 14.4 4 Nordeste 9 Nordeste 0 -- -- 89
2020-05-09 05:00:00 15.4 4 Noroeste 6 Noroeste 0 -- -- 88
2020-05-09 04:00:00 15.1 0 Calma 8 Norte 0 -- -- 89
2020-05-09 03:00:00 15.3 3 Oeste 6 Oeste 0 -- -- 87
2020-05-09 02:00:00 14.4 4 Oeste 7 Oeste 0 -- -- 90
2020-05-09 01:00:00 15.1 4 Oeste 8 Oeste 0 -- -- 88
2020-05-09 00:00:00 15.4 0 Calma 6 Oeste 0 -- -- 87
2020-05-08 23:00:00 15.5 0 Calma 3 Sudoeste 0 -- -- 87
2020-05-08 22:00:00 16.8 2 Norte 6 Nordeste 0 -- -- 82
2020-05-08 21:00:00 18.3 4 Norte 13 Nordeste 0 -- -- 77
2020-05-08 20:00:00 19.7 10 Nordeste 19 Nordeste 0 -- -- 72
2020-05-08 19:00:00 21.1 12 Nordeste 22 Este 0 -- -- 64
2020-05-08 18:00:00 22.5 10 Este 19 Sudeste 0 -- -- 59
2020-05-08 17:00:00 22.4 10 Este 24 Este 0 -- -- 58
2020-05-08 16:00:00 22.1 12 Este 23 Nordeste 0 -- -- 60
2020-05-08 15:00:00 22 13 Este 27 Este 0 -- -- 63
2020-05-08 14:00:00 22.1 8 Sudeste 21 Este 0 -- -- 56
2020-05-08 13:00:00 20.7 2 Nordeste 26 Nordeste 0 -- -- 65
2020-05-08 12:00:00 20.2 9 Este 21 Este 0 -- -- 68
2020-05-08 11:00:00 19.8 9 Este 19 Este 0 -- -- 69
2020-05-08 10:00:00 18.1 8 Este 14 Nordeste 0 -- -- 76
2020-05-08 09:00:00 16.1 0 Calma 6 Sudoeste 0 -- -- 86
2020-05-08 08:00:00 14.4 3 Sudoeste 14 Nordeste 0 -- -- 90
2020-05-08 07:00:00 13.9 3 Oeste 10 Sudoeste 0 -- -- 89
2020-05-08 06:00:00 12.8 2 Norte 9 Oeste 0 -- -- 85
2020-05-08 05:00:00 12 0 Calma 9 Oeste 0 -- -- 86
2020-05-08 04:00:00 12.5 0 Calma 10 Sudoeste 0 -- -- 83
2020-05-08 03:00:00 13.4 5 Oeste 10 Oeste 0 -- -- 78
2020-05-08 02:00:00 14 7 Oeste 12 Oeste 0 -- -- 75
2020-05-08 01:00:00 14.4 3 Oeste 6 Sudoeste 0 -- -- 78
2020-05-08 00:00:00 15.6 2 Sudoeste 8 Sudoeste 0 -- -- 78
2020-05-07 23:00:00 17.2 0 Calma 4 Norte 0 -- -- 79
2020-05-07 22:00:00 18.1 3 Este 6 Norte 0 -- -- 77
2020-05-07 21:00:00 19.8 4 Nordeste 13 Nordeste 0 -- -- 70
2020-05-07 20:00:00 21 6 Este 18 Este 0 -- -- 63
2020-05-07 19:00:00 22.4 12 Este 22 Nordeste 0 -- -- 50
2020-05-07 18:00:00 23.1 12 Este 27 Este 0 -- -- 49
2020-05-07 17:00:00 23.3 13 Nordeste 26 Este 0 -- -- 48
2020-05-07 16:00:00 23.9 12 Este 24 Este 0 -- -- 48
2020-05-07 15:00:00 23.6 14 Nordeste 30 Nordeste 0 -- -- 52
2020-05-07 14:00:00 24.6 12 Este 27 Este 0 -- -- 51
2020-05-07 13:00:00 24.6 11 Este 24 Este 0 -- -- 49
2020-05-07 12:00:00 23.3 9 Este 18 Nordeste 0 -- -- 55
2020-05-07 11:00:00 22.4 8 Sudeste 17 Sudeste 0 -- -- 63
2020-05-07 10:00:00 20.8 6 Este 10 Este 0 -- -- 63
2020-05-07 09:00:00 18.6 3 Este 7 Sudoeste 0 -- -- 74
2020-05-07 08:00:00 14.4 0 Calma 10 Oeste 0 -- -- 86
2020-05-07 07:00:00 13.2 2 Sudoeste 10 Oeste 0 -- -- 87
2020-05-07 06:00:00 13.1 2 Oeste 10 Oeste 0 -- -- 88
2020-05-07 05:00:00 13.4 0 Calma 4 Sudoeste 0 -- -- 88
2020-05-07 04:00:00 13.8 0 Calma 6 Oeste 0 -- -- 88
2020-05-07 03:00:00 14.1 0 Calma 7 Oeste 0 -- -- 88
2020-05-07 02:00:00 14.8 3 Oeste 6 Oeste 0 -- -- 86
2020-05-07 01:00:00 15.4 3 Sudoeste 9 Sudoeste 0 -- -- 86
2020-05-07 00:00:00 16.2 0 Calma 6 Oeste 0 -- -- 82
2020-05-06 23:00:00 17.4 0 Calma 4 Oeste 0 -- -- 80
2020-05-06 22:00:00 19.1 0 Calma 8 Este 0 -- -- 73
2020-05-06 21:00:00 21.1 4 Este 14 Nordeste 0 -- -- 65
2020-05-06 20:00:00 22.3 6 Nordeste 18 Nordeste 0 -- -- 61
2020-05-06 19:00:00 23.9 10 Nordeste 23 Nordeste 0 -- -- 56
2020-05-06 18:00:00 25.5 12 Nordeste 26 Sudeste 0 -- -- 52
2020-05-06 17:00:00 26.4 17 Este 25 Nordeste 0 -- -- 47
2020-05-06 16:00:00 27.6 10 Este 27 Este 0 -- -- 46
2020-05-06 15:00:00 26.9 11 Este 26 Sudeste 0 -- -- 48
2020-05-06 14:00:00 27.4 12 Este 20 Este 0 -- -- 47
2020-05-06 13:00:00 27 9 Este 22 Este 0 -- -- 48
2020-05-06 12:00:00 26 11 Este 17 Este 0 -- -- 45
2020-05-06 11:00:00 24.6 4 Sudeste 10 Este 0 -- -- 54
2020-05-06 10:00:00 22.8 2 Este 5 Sudeste 0 -- -- 62
2020-05-06 09:00:00 19.8 2 Sudeste 6 Nordeste 0 -- -- 70
2020-05-06 08:00:00 15.6 0 Calma 7 Sudoeste 0 -- -- 88
2020-05-06 07:00:00 14 0 Calma 5 Noroeste 0 -- -- 89
2020-05-06 06:00:00 14.9 3 Oeste 13 Sudoeste 0 -- -- 88
2020-05-06 05:00:00 14.9 4 Sudoeste 8 Oeste 0 -- -- 90
2020-05-06 04:00:00 15 0 Calma 10 Oeste 0 -- -- 89
2020-05-06 03:00:00 15.5 5 Sudoeste 8 Oeste 0 -- -- 88
2020-05-06 02:00:00 16.1 3 Sudoeste 8 Oeste 0 -- -- 85
2020-05-06 01:00:00 16.9 0 Calma 9 Oeste 0 -- -- 82
2020-05-06 00:00:00 17.4 3 Oeste 7 Noroeste 0 -- -- 81
2020-05-05 23:00:00 18.1 3 Sudoeste 5 Sudoeste 0 -- -- 80
2020-05-05 22:00:00 19.8 0 Calma 8 Norte 0 -- -- 75
2020-05-05 21:00:00 21.6 5 Norte 11 Este 0 -- -- 68
2020-05-05 20:00:00 23.7 5 Este 10 Este 0 -- -- 62
2020-05-05 19:00:00 24.2 5 Este 13 Este 0 -- -- 62
2020-05-05 18:00:00 26 9 Este 14 Este 0 -- -- 57
2020-05-05 17:00:00 27.6 10 Este 19 Este 0 -- -- 53
2020-05-05 16:00:00 29.7 12 Este 22 Este 0 -- -- 47
2020-05-05 15:00:00 31 9 Este 19 Este 0 -- -- 38
2020-05-05 14:00:00 30.4 9 Nordeste 18 Este 0 -- -- 38
2020-05-05 13:00:00 29.5 6 Sur 14 Sur 0 -- -- 37
2020-05-05 12:00:00 28.1 5 Sudoeste 14 Sur 0 -- -- 39
2020-05-05 11:00:00 26.2 5 Sudoeste 10 Sudoeste 0 -- -- 46
2020-05-05 10:00:00 21.6 5 Nordeste 8 Norte 0 -- -- 65
2020-05-05 09:00:00 18.6 0 Calma 5 Nordeste 0 -- -- 75
2020-05-05 08:00:00 13.7 0 Calma 5 Sudoeste 0 -- -- 91
2020-05-05 07:00:00 13.5 2 Sudoeste 5 Norte 0 -- -- 91
2020-05-05 06:00:00 13.9 4 Sudoeste 8 Sudoeste 0 -- -- 90
2020-05-05 05:00:00 14.5 3 Sudoeste 6 Oeste 0 -- -- 89
2020-05-05 04:00:00 14.8 3 Sudoeste 9 Oeste 0 -- -- 88
2020-05-05 03:00:00 15 2 Sudoeste 6 Sudoeste 0 -- -- 89
2020-05-05 02:00:00 16 4 Sudoeste 10 Sudoeste 0 -- -- 87
2020-05-05 01:00:00 16.1 2 Oeste 4 Oeste 0 -- -- 88
2020-05-05 00:00:00 17 0 Calma 8 Oeste 0 -- -- 85
2020-05-04 23:00:00 17.6 3 Sudoeste 8 Oeste 0 -- -- 82
2020-05-04 22:00:00 18.8 0 Calma 9 Nordeste 0 -- -- 79
2020-05-04 21:00:00 20.8 5 Nordeste 12 Este 0 -- -- 72
2020-05-04 20:00:00 23.4 6 Este 15 Este 0 -- -- 63
2020-05-04 19:00:00 25.5 10 Este 15 Este 0 -- -- 58
2020-05-04 18:00:00 25.8 8 Este 17 Este 0 -- -- 54
2020-05-04 17:00:00 27 10 Este 19 Este 0 -- -- 51
2020-05-04 16:00:00 27.4 10 Este 22 Este 0 -- -- 52
2020-05-04 15:00:00 26.8 8 Este 16 Este 0 -- -- 52
2020-05-04 14:00:00 25.8 5 Nordeste 13 Este 0 -- -- 51
2020-05-04 13:00:00 24.9 4 Este 15 Este 0 -- -- 56
2020-05-04 12:00:00 24.3 4 Nordeste 12 Sur 0 -- -- 53
2020-05-04 11:00:00 22.8 4 Este 9 Nordeste 0 -- -- 56
2020-05-04 10:00:00 20.2 3 Este 7 Nordeste 0 -- -- 67
2020-05-04 09:00:00 17.7 2 Sur 9 Sudoeste 0 -- -- 73
2020-05-04 08:00:00 13.9 4 Sudoeste 8 Sudoeste 0 -- -- 85
2020-05-04 07:00:00 12.8 3 Sudoeste 8 Sudoeste 0 -- -- 85
2020-05-04 06:00:00 13.2 5 Sudoeste 11 Sudoeste 0 -- -- 85
2020-05-04 05:00:00 13.5 4 Sudoeste 7 Sudoeste 0 -- -- 85
2020-05-04 04:00:00 13.7 3 Sudoeste 6 Oeste 0 -- -- 87
2020-05-04 03:00:00 14.2 4 Sudoeste 9 Oeste 0 -- -- 85
2020-05-04 02:00:00 15 5 Oeste 9 Oeste 0 -- -- 84
2020-05-04 01:00:00 15.3 3 Sudoeste 9 Oeste 0 -- -- 82
2020-05-04 00:00:00 16.1 6 Sudoeste 9 Sudoeste 0 -- -- 81
2020-05-03 23:00:00 16.6 0 Calma 6 Sudoeste 0 -- -- 78
2020-05-03 22:00:00 18.7 2 Sudoeste 5 Sudoeste 0 -- -- 70
2020-05-03 21:00:00 21.2 0 Calma 6 Nordeste 0 -- -- 63
2020-05-03 20:00:00 23.9 5 Nordeste 15 Nordeste 0 -- -- 53
2020-05-03 19:00:00 25.8 8 Este 20 Nordeste 0 -- -- 47
2020-05-03 18:00:00 26.6 12 Nordeste 21 Nordeste 0 -- -- 45
2020-05-03 17:00:00 27.7 8 Sudeste 20 Este 0 -- -- 44
2020-05-03 16:00:00 27.6 12 Este 20 Este 0 -- -- 44
2020-05-03 15:00:00 27.6 12 Este 24 Sudeste 0 -- -- 45
2020-05-03 14:00:00 27.9 11 Este 22 Este 0 -- -- 45
2020-05-03 13:00:00 27.6 10 Este 18 Este 0 -- -- 44
2020-05-03 12:00:00 27.1 8 Este 21 Este 0 -- -- 42
2020-05-03 11:00:00 26 9 Nordeste 15 Nordeste 0 -- -- 43
2020-05-03 10:00:00 24.3 2 Sudeste 6 Sudoeste 0 -- -- 49
2020-05-03 09:00:00 20.4 4 Nordeste 6 Oeste 0 -- -- 60
2020-05-03 08:00:00 16.4 0 Calma 9 Oeste 0 -- -- 70
2020-05-03 07:00:00 14.2 7 Oeste 9 Oeste 0 -- -- 72
2020-05-03 06:00:00 15.6 3 Norte 7 Sudoeste 0 -- -- 67
2020-05-03 05:00:00 15.6 0 Calma 7 Sudoeste 0 -- -- 68
2020-05-03 04:00:00 16.4 0 Calma 5 Sudoeste 0 -- -- 63
2020-05-03 03:00:00 17.3 0 Calma 14 Oeste 0 -- -- 62
2020-05-03 02:00:00 19.3 9 Sudoeste 20 Oeste 0 -- -- 53
2020-05-03 01:00:00 19.9 12 Sudoeste 19 Sudoeste 0 -- -- 51
2020-05-03 00:00:00 20.8 4 Oeste 17 Sudoeste 0 -- -- 49
2020-05-02 23:00:00 23 8 Sudoeste 17 Noroeste 0 -- -- 43
2020-05-02 22:00:00 24.4 8 Noroeste 13 Noroeste 0 -- -- 38
2020-05-02 21:00:00 25.5 4 Noroeste 13 Noroeste 0 -- -- 37
2020-05-02 20:00:00 28.3 5 Oeste 26 Sur 0 -- -- 31
2020-05-02 19:00:00 30.2 9 Oeste 30 Sudoeste 0 -- -- 28
2020-05-02 18:00:00 30.8 9 Sudoeste 27 Sudoeste 0 -- -- 28
2020-05-02 17:00:00 30.9 11 Sudoeste 29 Sudoeste 0 -- -- 30
2020-05-02 16:00:00 30.5 14 Sudoeste 34 Sudoeste 0 -- -- 30
2020-05-02 15:00:00 29.6 15 Sudoeste 33 Sudoeste 0 -- -- 33
2020-05-02 14:00:00 28.8 12 Sudoeste 31 Sudoeste 0 -- -- 36
2020-05-02 13:00:00 27.7 11 Sudoeste 27 Sudoeste 0 -- -- 40
2020-05-02 12:00:00 26.1 11 Sudoeste 27 Oeste 0 -- -- 46
2020-05-02 11:00:00 23.7 8 Noroeste 24 Noroeste 0 -- -- 53
2020-05-02 10:00:00 21.8 8 Oeste 26 Sudoeste 0 -- -- 58
2020-05-02 09:00:00 20.1 4 Sudeste 21 Sur 0 -- -- 64
2020-05-02 08:00:00 18.2 8 Sudeste 25 Sudoeste 0 -- -- 68
2020-05-02 07:00:00 18.3 12 Sudoeste 32 Sudoeste 0 -- -- 67
2020-05-02 06:00:00 18.7 11 Sudoeste 31 Sudoeste 0 -- -- 65
2020-05-02 05:00:00 18.9 6 Nordeste 26 Norte 0 -- -- 65
2020-05-02 04:00:00 19.7 10 Sudoeste 37 Nordeste 0 -- -- 61
2020-05-02 03:00:00 20 9 Nordeste 31 Sudoeste 0 -- -- 61
2020-05-02 02:00:00 20.8 9 Nordeste 20 Norte 0 -- -- 58
2020-05-02 01:00:00 21.5 11 Norte 36 Noroeste 0 -- -- 55
2020-05-02 00:00:00 21.3 10 Este 23 Nordeste 0 -- -- 53
2020-05-01 23:00:00 22.2 7 Norte 19 Sudeste 0 -- -- 50
2020-05-01 22:00:00 22.7 5 Sudeste 17 Sur 0 -- -- 50
2020-05-01 21:00:00 23.5 8 Sur 24 Sudoeste 0 -- -- 46
2020-05-01 20:00:00 24.8 11 Sudoeste 30 Oeste 0 -- -- 44
2020-05-01 19:00:00 25.3 13 Sudoeste 36 Sudoeste 0 -- -- 44
2020-05-01 18:00:00 27 16 Sudoeste 45 Sudoeste 0 -- -- 41
2020-05-01 17:00:00 27.5 12 Sudoeste 42 Sudoeste 0 -- -- 42
2020-05-01 16:00:00 26.9 17 Sudoeste 44 Sudoeste 0 -- -- 44
2020-05-01 15:00:00 26.5 10 Sudoeste 36 Noroeste 0 -- -- 42
2020-05-01 14:00:00 24.8 17 Sudoeste 45 Sudoeste 0 -- -- 44
2020-05-01 13:00:00 23.3 19 Sudoeste 39 Sudoeste 0 -- -- 49
2020-05-01 12:00:00 21.6 22 Sudoeste 48 Sudoeste 0 -- -- 54
2020-05-01 11:00:00 19.9 20 Sudoeste 43 Sudoeste 0 -- -- 56
2020-05-01 10:00:00 18.8 14 Sudoeste 31 Sur 0 -- -- 58
2020-05-01 09:00:00 18.4 10 Oeste 32 Este 0 -- -- 58
2020-05-01 08:00:00 16.5 5 Este 27 Oeste 0 -- -- 64
2020-05-01 07:00:00 15.8 6 Sudeste 41 Nordeste 0 -- -- 65
2020-05-01 06:00:00 15.8 8 Este 30 Norte 0 -- -- 66
2020-05-01 05:00:00 16.2 10 Este 28 Nordeste 0 -- -- 63
2020-05-01 04:00:00 16.2 12 Este 21 Nordeste 0 -- -- 63
2020-05-01 03:00:00 16.7 10 Este 35 Sudoeste 0 -- -- 62
2020-05-01 02:00:00 17.2 12 Sudoeste 32 Sudoeste 0 -- -- 59
2020-05-01 01:00:00 16.7 4 Norte 21 Oeste 0 -- -- 60
2020-05-01 00:00:00 15.6 0 Calma 17 Sudoeste 0 -- -- 65
2020-04-30 23:00:00 16.6 5 Sudoeste 16 Oeste 0 -- -- 60
2020-04-30 22:00:00 17.7 4 Sudoeste 19 Sudoeste 0 -- -- 57
2020-04-30 21:00:00 19.7 3 Oeste 23 Sudoeste 0 -- -- 48
2020-04-30 20:00:00 21.5 8 Oeste 28 Sudoeste 0 -- -- 43
2020-04-30 19:00:00 23.2 14 Sudoeste 44 Sudoeste 0 -- -- 40
2020-04-30 18:00:00 23.8 15 Sudoeste 42 Sudoeste 0 -- -- 38
2020-04-30 17:00:00 23.7 22 Sudoeste 42 Sudoeste 0 -- -- 37
2020-04-30 16:00:00 23.9 13 Oeste 41 Sudoeste 0 -- -- 40
2020-04-30 15:00:00 22.9 16 Sudoeste 41 Sudoeste 0 -- -- 46
2020-04-30 14:00:00 21.9 14 Sudoeste 43 Sudoeste 0 -- -- 49
2020-04-30 13:00:00 20.3 20 Sudoeste 40 Sudoeste 0 -- -- 55
2020-04-30 12:00:00 19.9 21 Sudoeste 39 Sudoeste 0 -- -- 57
2020-04-30 11:00:00 17.6 9 Sudoeste 36 Sudoeste 0 -- -- 62
2020-04-30 10:00:00 16.4 18 Sudoeste 35 Oeste 0 -- -- 63
2020-04-30 09:00:00 15.8 5 Oeste 16 Sudoeste 0 -- -- 63
2020-04-30 08:00:00 15.8 6 Sudoeste 35 Sudoeste 0 -- -- 62
2020-04-30 07:00:00 16.2 15 Sudoeste 42 Sudoeste 0 -- -- 62
2020-04-30 06:00:00 16.9 10 Sudoeste 47 Sudoeste 0 -- -- 62
2020-04-30 05:00:00 17.2 14 Sudoeste 42 Sudoeste 0 -- -- 59
2020-04-30 04:00:00 17.6 9 Sur 35 Norte 0 -- -- 56
2020-04-30 03:00:00 17 5 Norte 16 Sudoeste 0 -- -- 56
2020-04-30 02:00:00 17.5 6 Oeste 31 Sudoeste 0 -- -- 52
2020-04-30 01:00:00 18.3 12 Sudoeste 27 Sudoeste 0 -- -- 50
2020-04-30 00:00:00 18.8 7 Sudoeste 17 Sur 0 -- -- 47
2020-04-29 23:00:00 19.6 9 Sudoeste 21 Sudoeste 0 -- -- 42
2020-04-29 22:00:00 19.7 6 Sudoeste 19 Oeste 0 -- -- 41
2020-04-29 21:00:00 20.5 5 Oeste 28 Sudoeste 0 -- -- 41
2020-04-29 20:00:00 21.7 10 Sudoeste 40 Sudoeste 0 -- -- 36
2020-04-29 19:00:00 23.6 6 Oeste 34 Sudoeste 0 -- -- 34
2020-04-29 18:00:00 23.8 14 Sudoeste 39 Sudoeste 0 -- -- 33
2020-04-29 17:00:00 23.3 9 Oeste 31 Sudoeste 0 -- -- 36
2020-04-29 16:00:00 24 14 Sudoeste 33 Sur 0 -- -- 37
2020-04-29 15:00:00 23 15 Sudoeste 35 Sudoeste 0 -- -- 38
2020-04-29 14:00:00 22.1 12 Oeste 29 Sudoeste 0 -- -- 41
2020-04-29 13:00:00 21.6 10 Sudoeste 24 Sudoeste 0 -- -- 42
2020-04-29 12:00:00 20.2 9 Sudoeste 24 Sudoeste 0 -- -- 42
2020-04-29 11:00:00 18.3 10 Sudoeste 23 Sudoeste 0 -- -- 48
2020-04-29 10:00:00 16.6 13 Sudoeste 26 Sudoeste 0 -- -- 55
2020-04-29 09:00:00 15.6 12 Sudoeste 24 Sudoeste 0 -- -- 57
2020-04-29 08:00:00 13.5 9 Oeste 21 Oeste 0 -- -- 63
2020-04-29 07:00:00 12.5 8 Oeste 22 Sudoeste 0 -- -- 65
2020-04-29 06:00:00 12.3 7 Oeste 22 Sudoeste 0 -- -- 65
2020-04-29 05:00:00 12.2 9 Oeste 20 Sudoeste 0 -- -- 65
2020-04-29 04:00:00 12.2 4 Noroeste 10 Sudoeste 0 -- -- 64
2020-04-29 03:00:00 12.7 4 Noroeste 10 Noroeste 0 -- -- 61
2020-04-29 02:00:00 13.8 6 Oeste 17 Oeste 0 -- -- 57
2020-04-29 01:00:00 14.2 7 Oeste 15 Oeste 0 -- -- 57
2020-04-29 00:00:00 14.8 5 Noroeste 13 Oeste 0 -- -- 55
2020-04-28 23:00:00 15.2 5 Oeste 12 Noroeste 0 -- -- 58
2020-04-28 22:00:00 15.4 3 Noroeste 8 Noroeste 0 -- -- 56
2020-04-28 21:00:00 17 0 Calma 20 Oeste 0 -- -- 49
2020-04-28 20:00:00 19.4 5 Oeste 25 Sudoeste 0 -- -- 42
2020-04-28 19:00:00 21.4 9 Oeste 41 Sudoeste 0 -- -- 41
2020-04-28 18:00:00 21.8 12 Oeste 36 Sudoeste 0 -- -- 41
2020-04-28 17:00:00 20.8 7 Oeste 35 Sudoeste 0 -- -- 43
2020-04-28 16:00:00 20.2 13 Sudoeste 28 Sudoeste 0 -- -- 43
2020-04-28 15:00:00 20.1 11 Oeste 28 Oeste 0 -- -- 42
2020-04-28 14:00:00 20.1 14 Sudoeste 36 Sudoeste 0 -- -- 45
2020-04-28 13:00:00 19.3 8 Oeste 26 Sudoeste 0 -- -- 51
2020-04-28 12:00:00 18.6 6 Sudoeste 31 Oeste 0 -- -- 53
2020-04-28 11:00:00 17 12 Sudoeste 28 Oeste 0 -- -- 59
2020-04-28 10:00:00 16.1 10 Sudoeste 28 Sur 0 -- -- 64
2020-04-28 09:00:00 14.2 5 Nordeste 12 Este 0 -- -- 75
2020-04-28 08:00:00 11.6 4 Nordeste 8 Norte 0 -- -- 83
2020-04-28 07:00:00 10.5 3 Norte 17 Sudoeste 0 -- -- 83
2020-04-28 06:00:00 11.3 4 Norte 28 Sudoeste 0 -- -- 79
2020-04-28 05:00:00 13.1 12 Sudoeste 31 Sudoeste 0 -- -- 72
2020-04-28 04:00:00 12.9 9 Sudoeste 26 Sudoeste 0 -- -- 73
2020-04-28 03:00:00 12.8 5 Sudoeste 13 Oeste 0 -- -- 74
2020-04-28 02:00:00 12.7 3 Oeste 20 Sudoeste 0 -- -- 71
2020-04-28 01:00:00 13 6 Oeste 17 Sudoeste 0 -- -- 70
2020-04-28 00:00:00 12.8 6 Oeste 10 Oeste 0 -- -- 73
2020-04-27 23:00:00 13 4 Oeste 13 Sudoeste 0 -- -- 73
2020-04-27 22:00:00 14 4 Oeste 19 Sur 0 -- -- 72
2020-04-27 21:00:00 15.3 3 Noroeste 24 Sudoeste 0 -- -- 71
2020-04-27 20:00:00 16.1 6 Oeste 48 Sudoeste 0 -- -- 68
2020-04-27 19:00:00 20.2 10 Sudoeste 33 Sur 0 -- -- 49
2020-04-27 18:00:00 20.2 9 Sudoeste 25 Sudoeste 0 -- -- 55
2020-04-27 17:00:00 23 6 Sudoeste 30 Sudoeste 0 -- -- 45
2020-04-27 16:00:00 22 9 Noroeste 22 Sudoeste 0 -- -- 45
2020-04-27 15:00:00 22 9 Sudoeste 28 Noroeste 0 -- -- 45
2020-04-27 14:00:00 21.2 11 Sudoeste 29 Sudoeste 0 -- -- 46
2020-04-27 13:00:00 21.7 8 Sudoeste 21 Sudoeste 0 -- -- 47
2020-04-27 12:00:00 20 12 Sudoeste 26 Sudoeste 0 -- -- 55
2020-04-27 11:00:00 19.3 5 Sudoeste 23 Noroeste 0 -- -- 58
2020-04-27 10:00:00 18.1 9 Sudoeste 26 Sudoeste 0 -- -- 63
2020-04-27 09:00:00 15.5 5 Sur 26 Sudoeste 0 -- -- 75
2020-04-27 08:00:00 14.2 6 Sudoeste 21 Sudoeste 0 -- -- 79
2020-04-27 07:00:00 13.2 3 Sudeste 10 Este 0 -- -- 91
2020-04-27 06:00:00 12.5 4 Nordeste 8 Nordeste 0 -- -- 96
2020-04-27 05:00:00 12.6 0 Calma 5 Oeste 0 -- -- 96
2020-04-27 04:00:00 13.1 0 Calma 6 Oeste 0 -- -- 95
2020-04-27 03:00:00 13.3 0 Calma 6 Oeste 0 -- -- 95
2020-04-27 02:00:00 13.9 0 Calma 4 Oeste 0 -- -- 95
2020-04-27 01:00:00 14.2 0 Calma 4 Noroeste 0 -- -- 94
2020-04-27 00:00:00 14.4 0 Calma 6 Norte 0 -- -- 94
2020-04-26 23:00:00 14.7 3 Noroeste 10 Oeste 0.6 -- -- 92
2020-04-26 22:00:00 15.3 5 Oeste 8 Oeste 0.4 -- -- 92
2020-04-26 21:00:00 15.8 4 Oeste 7 Sudoeste 1 -- -- 92
2020-04-26 20:00:00 16 3 Noroeste 6 Sudeste 0.6 -- -- 92
2020-04-26 19:00:00 16.8 2 Este 7 Nordeste 0.2 -- -- 90
2020-04-26 18:00:00 16.6 3 Sudoeste 7 Sur 2.6 -- -- 90
2020-04-26 17:00:00 16.7 3 Este 23 Este 2.2 -- -- 89
2020-04-26 16:00:00 18.9 13 Nordeste 21 Este 0 -- -- 77
2020-04-26 15:00:00 21.5 10 Este 19 Este 0 -- -- 65
2020-04-26 14:00:00 21.9 3 Noroeste 18 Norte 0 -- -- 54
2020-04-26 13:00:00 22.2 11 Sudoeste 36 Sudoeste 0 -- -- 54
2020-04-26 12:00:00 22.3 6 Noroeste 22 Sudoeste 0 -- -- 55
2020-04-26 11:00:00 20.7 10 Sudoeste 21 Sudoeste 0 -- -- 61
2020-04-26 10:00:00 -- 0 Calma -- -- 0 -- -- --
2020-04-26 09:00:00 14.9 4 Nordeste 8 Nordeste 0 -- -- 86
2020-04-26 08:00:00 11 2 Sudoeste 8 Oeste 0 -- -- 97
2020-04-26 07:00:00 10.2 0 Calma 9 Sudoeste 0 -- -- 96
2020-04-26 06:00:00 10.3 2 Noroeste 6 Sudoeste 0 -- -- 95
2020-04-26 05:00:00 10.6 3 Oeste 10 Oeste 0 -- -- 95
2020-04-26 04:00:00 10.2 2 Norte 7 Noroeste 0 -- -- 94
2020-04-26 03:00:00 10.5 0 Calma 8 Sudoeste 0 -- -- 92
2020-04-26 02:00:00 11.4 2 Oeste 8 Oeste 0 -- -- 89
2020-04-26 01:00:00 12 4 Oeste 8 Oeste 0 -- -- 88
2020-04-26 00:00:00 12.5 5 Sudoeste 10 Sudoeste 0 -- -- 88